Guide — WDE7328 — position and weather

sailwx.info

Track history (hours):
 
Tides and Currents Weather Stations Pressure Air Temp Water Temp Dewpoint Dewpoint Depression Visibility Wind Speed Wind Dir Waves Ship Positions

Guide

Owner: Crowley Marine Services, SEATTLE, WA. More information available from US FCC via Universal Licensing System and Coast Guard Vessel Documentation Center.

Last reported at 2016-Jul-31 08:33 UTC. Time now 2016-Jul-31 09:31 UTC.
Position N 47°15' W 122°23'.

Length 34 m; draft 5.1 m.

Type: Tug. MMSI: 366759530.

Date/timePositionNaut miles runAvg speedWind from/ knotsBaromVisibWave heightAir tempDewpointWater temp
2016-Jul-31 08:33N 47°15' W 122°23'2 2.1
2016-Jul-31 07:33N 47°15' W 122°26'0 0.0
2016-Jul-31 06:33N 47°15' W 122°26'0 0.0
2016-Jul-31 05:33N 47°15' W 122°26'0 0.0
2016-Jul-31 04:33N 47°15' W 122°26'0 0.0
2016-Jul-31 03:33N 47°15' W 122°26'0 0.0
2016-Jul-31 02:33N 47°15' W 122°26'0 0.0
2016-Jul-31 01:33N 47°15' W 122°26'0 0.0
2016-Jul-31 00:33N 47°15' W 122°26'2 0.8
2016-Jul-30 22:33N 47°17' W 122°25'1 1.2
2016-Jul-30 21:33N 47°17' W 122°26'2 2.0
2016-Jul-30 20:33N 47°15' W 122°26'0 0.0
2016-Jul-30 19:33N 47°15' W 122°26'0 0.0
2016-Jul-30 18:33N 47°15' W 122°26'0 0.0
2016-Jul-30 17:33N 47°15' W 122°26'1 1.4
2016-Jul-30 16:33N 47°17' W 122°26'3 2.5
2016-Jul-30 15:33N 47°15' W 122°23'3 3.1
2016-Jul-30 14:33N 47°17' W 122°26'2 2.2
2016-Jul-30 13:33N 47°15' W 122°26'0 0.0
2016-Jul-30 12:33N 47°15' W 122°26'0 0.0
2016-Jul-30 11:33N 47°15' W 122°26'0 0.0
2016-Jul-30 10:33N 47°15' W 122°26'0 0.0
2016-Jul-30 09:33N 47°15' W 122°26'0 0.0
2016-Jul-30 08:32N 47°15' W 122°26'0 0.0
2016-Jul-30 07:32N 47°15' W 122°26'0 0.0
2016-Jul-30 06:33N 47°15' W 122°26'0 0.0
2016-Jul-30 05:33N 47°15' W 122°26'0 0.0
2016-Jul-30 04:33N 47°15' W 122°26'0 0.0
2016-Jul-30 03:32N 47°15' W 122°26'0 0.0
2016-Jul-30 02:33N 47°15' W 122°26'0 0.0
2016-Jul-30 01:33N 47°15' W 122°26'0 0.0
2016-Jul-30 00:33N 47°15' W 122°26'2 1.6
2016-Jul-29 23:33N 47°17' W 122°25'0 0.0
2016-Jul-29 22:33N 47°17' W 122°25'1 1.0
2016-Jul-29 21:33N 47°17' W 122°26'1 1.2
2016-Jul-29 20:33N 47°15' W 122°26'0 0.0
2016-Jul-29 18:13N 47°15' W 122°26'0 0.0
2016-Jul-29 17:33N 47°15' W 122°26'0 0.0
2016-Jul-29 16:10N 47°15' W 122°26'0 0.0
2016-Jul-29 15:08N 47°15' W 122°26'0 0.0
2016-Jul-29 13:33N 47°15' W 122°26'0 0.0
2016-Jul-29 12:33N 47°15' W 122°26'2 1.6
2016-Jul-29 11:33N 47°17' W 122°25'0 0.2
2016-Jul-29 10:33N 47°17' W 122°25'2 1.6
2016-Jul-29 09:34N 47°16' W 122°23'2 1.9
2016-Jul-29 08:33N 47°15' W 122°26'0 0.0
2016-Jul-29 07:32N 47°15' W 122°26'0 0.0
2016-Jul-29 06:33N 47°15' W 122°26'0 0.0
2016-Jul-29 05:33N 47°15' W 122°26'0 0.0
2016-Jul-29 04:33N 47°15' W 122°26'0 0.0
2016-Jul-29 03:33N 47°15' W 122°26'0 0.0
2016-Jul-29 01:32N 47°15' W 122°26'2 1.7
2016-Jul-29 00:34N 47°17' W 122°25'0 0.2
2016-Jul-28 23:33N 47°17' W 122°25'1 1.2
2016-Jul-28 22:30N 47°16' W 122°23'0 0.0
2016-Jul-28 21:33N 47°16' W 122°23'2 2.2
2016-Jul-28 20:33N 47°17' W 122°26'1 1.5
2016-Jul-28 19:33N 47°15' W 122°26'0 0.0
2016-Jul-28 18:33N 47°15' W 122°26'0 0.0
2016-Jul-28 17:33N 47°15' W 122°26'0 0.0
2016-Jul-28 16:33N 47°15' W 122°26'0 0.0
2016-Jul-28 14:17N 47°15' W 122°26'2 2.2
2016-Jul-28 13:25N 47°16' W 122°23'1 1.5
2016-Jul-28 12:33N 47°17' W 122°25'1 1.3
2016-Jul-28 11:33N 47°18' W 122°26'1 1.4
2016-Jul-28 10:32N 47°17' W 122°25'1 1.4
2016-Jul-28 09:33N 47°16' W 122°23'5 4.6
2016-Jul-28 08:33N 47°19' W 122°28'8 7.9
2016-Jul-28 07:33N 47°27' W 122°23'10 9.6
2016-Jul-28 06:33N 47°36' W 122°23'4 3.6
2016-Jul-28 05:33N 47°33' W 122°20'1 1.0
2016-Jul-28 04:33N 47°34' W 122°21'1 1.4
2016-Jul-28 03:33N 47°35' W 122°21'0 0.0
2016-Jul-28 02:33N 47°35' W 122°21'0 0.0
2016-Jul-28 01:33N 47°35' W 122°21'0 0.0
2016-Jul-28 00:33N 47°35' W 122°21'0 0.0
2016-Jul-27 23:33N 47°35' W 122°21'0 0.4
2016-Jul-27 22:33N 47°35' W 122°21'0 0.4
2016-Jul-27 21:33N 47°35' W 122°21'0 0.0
2016-Jul-27 20:33N 47°35' W 122°21'0 0.0
2016-Jul-27 19:34N 47°35' W 122°21'0 0.0
2016-Jul-27 18:33N 47°35' W 122°21'0 0.0
2016-Jul-27 17:33N 47°35' W 122°21'0 0.0
2016-Jul-27 16:33N 47°35' W 122°21'0 0.0
2016-Jul-27 15:33N 47°35' W 122°21'0 0.0
2016-Jul-27 14:33N 47°35' W 122°21'0 0.0
2016-Jul-27 13:33N 47°35' W 122°21'0 0.0
2016-Jul-27 12:33N 47°35' W 122°21'0 0.0
2016-Jul-27 11:33N 47°35' W 122°21'0 0.4
2016-Jul-27 10:33N 47°36' W 122°21'4 4.3
2016-Jul-27 09:33N 47°33' W 122°26'1010.5
2016-Jul-27 08:33N 47°23' W 122°21'7 7.4
2016-Jul-27 07:33N 47°16' W 122°25'1 0.9
2016-Jul-27 06:23N 47°15' W 122°26'0 0.0
2016-Jul-27 02:31N 47°15' W 122°26'0 0.0
2016-Jul-27 01:33N 47°15' W 122°26'0 0.0
2016-Jul-26 23:28N 47°15' W 122°26'1 1.0
2016-Jul-26 22:23N 47°16' W 122°25'0 0.2
2016-Jul-26 21:29N 47°16' W 122°25'1 0.6
2016-Jul-26 19:31N 47°15' W 122°26'0 0.0
2016-Jul-26 18:33N 47°15' W 122°26'2 2.3
2016-Jul-26 17:32N 47°15' W 122°22'2 2.0
2016-Jul-26 16:33N 47°17' W 122°25'1 1.2
2016-Jul-26 15:33N 47°18' W 122°26'3 2.5
2016-Jul-26 14:31N 47°16' W 122°23'2 1.7
2016-Jul-26 13:34N 47°17' W 122°25'0 0.2
2016-Jul-26 12:33N 47°17' W 122°25'2 1.6
2016-Jul-26 11:33N 47°16' W 122°23'0 0.3
2016-Jul-26 10:33N 47°16' W 122°23'2 2.2
2016-Jul-26 09:34N 47°17' W 122°26'1 0.8
2016-Jul-26 08:33N 47°17' W 122°25'2 1.6
2016-Jul-26 07:33N 47°15' W 122°26'0 0.0
2016-Jul-26 06:33N 47°15' W 122°26'0 0.0
2016-Jul-26 05:33N 47°15' W 122°26'1 1.2
2016-Jul-26 04:33N 47°16' W 122°26'2 2.3
2016-Jul-26 03:33N 47°16' W 122°23'2 0.7
2016-Jul-26 00:29N 47°15' W 122°26'0 0.0
2016-Jul-25 21:14N 47°15' W 122°26'0 0.0
2016-Jul-25 20:33N 47°15' W 122°26'0 0.0
2016-Jul-25 19:33N 47°15' W 122°26'0 0.0
2016-Jul-25 18:33N 47°15' W 122°26'0 0.0
2016-Jul-25 17:33N 47°15' W 122°26'1 0.9
2016-Jul-25 16:33N 47°16' W 122°26'1 1.0
2016-Jul-25 15:33N 47°17' W 122°25'1 0.6
2016-Jul-25 14:33N 47°17' W 122°25'1 0.7
2016-Jul-25 13:32N 47°16' W 122°24'1 0.8
2016-Jul-25 12:33N 47°17' W 122°25'1 1.5
2016-Jul-25 11:33N 47°16' W 122°23'2 2.0
2016-Jul-25 10:33N 47°15' W 122°26'0 0.0
2016-Jul-25 09:33N 47°15' W 122°26'0 0.0
2016-Jul-25 08:32N 47°15' W 122°26'0 0.0
2016-Jul-25 07:31N 47°15' W 122°26'0 0.0
2016-Jul-25 06:33N 47°15' W 122°26'0 0.0
2016-Jul-25 05:33N 47°15' W 122°26'0 0.0
2016-Jul-25 04:21N 47°15' W 122°26'0 0.0
2016-Jul-25 03:33N 47°15' W 122°26'0 0.0
2016-Jul-25 02:33N 47°15' W 122°26'0 0.0
2016-Jul-25 01:33N 47°15' W 122°26'2 1.8
2016-Jul-25 00:33N 47°17' W 122°25'1 0.7
2016-Jul-24 23:33N 47°18' W 122°26'0 0.0
2016-Jul-24 22:33N 47°18' W 122°26'1 1.3
2016-Jul-24 21:33N 47°16' W 122°25'1 0.5
2016-Jul-24 20:32N 47°17' W 122°25'2 2.1
2016-Jul-24 19:32N 47°16' W 122°23'2 2.0
2016-Jul-24 18:28N 47°15' W 122°26'0 0.0
2016-Jul-24 17:33N 47°15' W 122°26'0 0.0
2016-Jul-24 16:33N 47°15' W 122°26'0 0.0
2016-Jul-24 15:33N 47°15' W 122°26'0 0.0
2016-Jul-24 14:33N 47°15' W 122°26'0 0.0
2016-Jul-24 13:33N 47°15' W 122°26'0 0.3
2016-Jul-24 12:33N 47°16' W 122°26'2 2.2
2016-Jul-24 11:33N 47°16' W 122°23'3 2.8
2016-Jul-24 10:33N 47°17' W 122°26'0 0.2
2016-Jul-24 09:32N 47°18' W 122°26'3 3.5
2016-Jul-24 08:33N 47°21' W 122°25'7 7.5
2016-Jul-24 07:33N 47°28' W 122°24'8 7.6
2016-Jul-24 06:33N 47°36' W 122°24'2 2.1
2016-Jul-24 05:33N 47°35' W 122°21'0 0.4
2016-Jul-24 04:33N 47°35' W 122°21'0 0.0
2016-Jul-24 03:33N 47°35' W 122°21'0 0.0
2016-Jul-24 02:33N 47°35' W 122°21'0 0.0
2016-Jul-24 01:33N 47°35' W 122°21'0 0.0
2016-Jul-24 00:33N 47°35' W 122°21'0 0.0
2016-Jul-23 23:33N 47°35' W 122°21'0 0.3
2016-Jul-23 22:33N 47°36' W 122°21'2 1.9
2016-Jul-23 21:33N 47°36' W 122°23'1010.0
2016-Jul-23 20:33N 47°26' W 122°23'9 9.2
2016-Jul-23 19:33N 47°17' W 122°25'0 0.5
2016-Jul-23 18:33N 47°17' W 122°25'1 1.2
2016-Jul-23 17:33N 47°16' W 122°26'1 1.1
2016-Jul-23 16:33N 47°15' W 122°26'4 4.0
2016-Jul-23 15:33N 47°19' W 122°28'7 7.5
2016-Jul-23 14:33N 47°26' W 122°23'9 9.0
2016-Jul-23 13:33N 47°35' W 122°25'3 3.1
2016-Jul-23 12:33N 47°35' W 122°21'0 0.0
2016-Jul-23 11:33N 47°35' W 122°21'0 0.5
2016-Jul-23 10:33N 47°35' W 122°21'2 1.7
2016-Jul-23 09:33N 47°36' W 122°22'7 6.8
2016-Jul-23 08:33N 47°30' W 122°24'9 8.8
2016-Jul-23 07:33N 47°21' W 122°24'6 6.0
2016-Jul-23 06:33N 47°15' W 122°26'0 0.0
2016-Jul-23 04:33N 47°15' W 122°26'0 0.0
2016-Jul-23 03:33N 47°15' W 122°26'2 1.7
2016-Jul-23 02:33N 47°17' W 122°25'2 2.0
2016-Jul-23 01:33N 47°16' W 122°23'0 0.1
2016-Jul-23 00:33N 47°16' W 122°23'0 0.0
2016-Jul-22 23:33N 47°16' W 122°23'2 2.0
2016-Jul-22 22:33N 47°15' W 122°26'0 0.0
2016-Jul-22 21:33N 47°15' W 122°26'0 0.0
2016-Jul-22 20:32N 47°15' W 122°26'0 0.0
2016-Jul-22 19:26N 47°15' W 122°26'0 0.0
2016-Jul-22 18:28N 47°15' W 122°26'0 0.0
2016-Jul-22 17:28N 47°15' W 122°26'0 0.0
2016-Jul-22 16:33N 47°15' W 122°26'0 0.0
2016-Jul-22 15:33N 47°15' W 122°26'2 1.5
2016-Jul-22 14:32N 47°17' W 122°25'2 1.7
2016-Jul-22 13:33N 47°15' W 122°23'2 1.9
2016-Jul-22 12:16N 47°16' W 122°26'1 0.9
2016-Jul-22 11:33N 47°15' W 122°26'0 0.0
2016-Jul-22 10:33N 47°15' W 122°26'0 0.0
2016-Jul-22 09:33N 47°15' W 122°26'0 0.0
2016-Jul-22 08:33N 47°15' W 122°26'0 0.0
2016-Jul-22 07:32N 47°15' W 122°26'0 0.0
2016-Jul-22 05:33N 47°15' W 122°26'0 0.0
2016-Jul-22 04:33N 47°15' W 122°26'2 1.6
2016-Jul-22 03:33N 47°17' W 122°25'0 0.1
2016-Jul-22 01:33N 47°17' W 122°25'1 1.4
2016-Jul-22 00:32N 47°16' W 122°24'1 0.6
2016-Jul-21 22:33N 47°16' W 122°25'1 1.2
2016-Jul-21 21:28N 47°16' W 122°23'2 2.1
2016-Jul-21 20:33N 47°16' W 122°26'0 0.3
2016-Jul-21 19:33N 47°15' W 122°26'0 0.0
2016-Jul-21 18:33N 47°15' W 122°26'0 0.0
2016-Jul-21 17:32N 47°15' W 122°26'0 0.0
2016-Jul-21 16:33N 47°15' W 122°26'0 0.0
2016-Jul-21 15:33N 47°15' W 122°26'2 1.8
2016-Jul-21 14:33N 47°16' W 122°24'3 2.7
2016-Jul-21 13:33N 47°18' W 122°26'1 0.8
2016-Jul-21 12:33N 47°17' W 122°26'2 2.1
2016-Jul-21 11:33N 47°16' W 122°23'1 1.4
2016-Jul-21 10:33N 47°17' W 122°25'1 1.0
2016-Jul-21 09:33N 47°18' W 122°26'0 0.0
2016-Jul-21 08:33N 47°18' W 122°26'  
Track history (hours):
 
Tides and Currents Weather Stations Pressure Air Temp Water Temp Dewpoint Dewpoint Depression Visibility Wind Speed Wind Dir Waves Ship Positions

Guide

Owner: Crowley Marine Services, SEATTLE, WA. More information available from US FCC via Universal Licensing System and Coast Guard Vessel Documentation Center.

Last reported at 2016-Jul-31 08:33 UTC. Time now 2016-Jul-31 09:31 UTC.
Position N 47°15' W 122°23'.

Length 34 m; draft 5.1 m.

Type: Tug. MMSI: 366759530.

Date/timePositionNaut miles runAvg speedWind from/ knotsBaromVisibWave heightAir tempDewpointWater temp
2016-Jul-31 08:33N 47°15' W 122°23'2 2.1
2016-Jul-31 07:33N 47°15' W 122°26'0 0.0
2016-Jul-31 06:33N 47°15' W 122°26'0 0.0
2016-Jul-31 05:33N 47°15' W 122°26'0 0.0
2016-Jul-31 04:33N 47°15' W 122°26'0 0.0
2016-Jul-31 03:33N 47°15' W 122°26'0 0.0
2016-Jul-31 02:33N 47°15' W 122°26'0 0.0
2016-Jul-31 01:33N 47°15' W 122°26'0 0.0
2016-Jul-31 00:33N 47°15' W 122°26'2 0.8
2016-Jul-30 22:33N 47°17' W 122°25'1 1.2
2016-Jul-30 21:33N 47°17' W 122°26'2 2.0
2016-Jul-30 20:33N 47°15' W 122°26'0 0.0
2016-Jul-30 19:33N 47°15' W 122°26'0 0.0
2016-Jul-30 18:33N 47°15' W 122°26'0 0.0
2016-Jul-30 17:33N 47°15' W 122°26'1 1.4
2016-Jul-30 16:33N 47°17' W 122°26'3 2.5
2016-Jul-30 15:33N 47°15' W 122°23'3 3.1
2016-Jul-30 14:33N 47°17' W 122°26'2 2.2
2016-Jul-30 13:33N 47°15' W 122°26'0 0.0
2016-Jul-30 12:33N 47°15' W 122°26'0 0.0
2016-Jul-30 11:33N 47°15' W 122°26'0 0.0
2016-Jul-30 10:33N 47°15' W 122°26'0 0.0
2016-Jul-30 09:33N 47°15' W 122°26'0 0.0
2016-Jul-30 08:32N 47°15' W 122°26'0 0.0
2016-Jul-30 07:32N 47°15' W 122°26'0 0.0
2016-Jul-30 06:33N 47°15' W 122°26'0 0.0
2016-Jul-30 05:33N 47°15' W 122°26'0 0.0
2016-Jul-30 04:33N 47°15' W 122°26'0 0.0
2016-Jul-30 03:32N 47°15' W 122°26'0 0.0
2016-Jul-30 02:33N 47°15' W 122°26'0 0.0
2016-Jul-30 01:33N 47°15' W 122°26'0 0.0
2016-Jul-30 00:33N 47°15' W 122°26'2 1.6
2016-Jul-29 23:33N 47°17' W 122°25'0 0.0
2016-Jul-29 22:33N 47°17' W 122°25'1 1.0
2016-Jul-29 21:33N 47°17' W 122°26'1 1.2
2016-Jul-29 20:33N 47°15' W 122°26'0 0.0
2016-Jul-29 18:13N 47°15' W 122°26'0 0.0
2016-Jul-29 17:33N 47°15' W 122°26'0 0.0
2016-Jul-29 16:10N 47°15' W 122°26'0 0.0
2016-Jul-29 15:08N 47°15' W 122°26'0 0.0
2016-Jul-29 13:33N 47°15' W 122°26'0 0.0
2016-Jul-29 12:33N 47°15' W 122°26'2 1.6
2016-Jul-29 11:33N 47°17' W 122°25'0 0.2
2016-Jul-29 10:33N 47°17' W 122°25'2 1.6
2016-Jul-29 09:34N 47°16' W 122°23'2 1.9
2016-Jul-29 08:33N 47°15' W 122°26'0 0.0
2016-Jul-29 07:32N 47°15' W 122°26'0 0.0
2016-Jul-29 06:33N 47°15' W 122°26'0 0.0
2016-Jul-29 05:33N 47°15' W 122°26'0 0.0
2016-Jul-29 04:33N 47°15' W 122°26'0 0.0
2016-Jul-29 03:33N 47°15' W 122°26'0 0.0
2016-Jul-29 01:32N 47°15' W 122°26'2 1.7
2016-Jul-29 00:34N 47°17' W 122°25'0 0.2
2016-Jul-28 23:33N 47°17' W 122°25'1 1.2
2016-Jul-28 22:30N 47°16' W 122°23'0 0.0
2016-Jul-28 21:33N 47°16' W 122°23'2 2.2
2016-Jul-28 20:33N 47°17' W 122°26'1 1.5
2016-Jul-28 19:33N 47°15' W 122°26'0 0.0
2016-Jul-28 18:33N 47°15' W 122°26'0 0.0
2016-Jul-28 17:33N 47°15' W 122°26'0 0.0
2016-Jul-28 16:33N 47°15' W 122°26'0 0.0
2016-Jul-28 14:17N 47°15' W 122°26'2 2.2
2016-Jul-28 13:25N 47°16' W 122°23'1 1.5
2016-Jul-28 12:33N 47°17' W 122°25'1 1.3
2016-Jul-28 11:33N 47°18' W 122°26'1 1.4
2016-Jul-28 10:32N 47°17' W 122°25'1 1.4
2016-Jul-28 09:33N 47°16' W 122°23'5 4.6
2016-Jul-28 08:33N 47°19' W 122°28'8 7.9
2016-Jul-28 07:33N 47°27' W 122°23'10 9.6
2016-Jul-28 06:33N 47°36' W 122°23'4 3.6
2016-Jul-28 05:33N 47°33' W 122°20'1 1.0
2016-Jul-28 04:33N 47°34' W 122°21'1 1.4
2016-Jul-28 03:33N 47°35' W 122°21'0 0.0
2016-Jul-28 02:33N 47°35' W 122°21'0 0.0
2016-Jul-28 01:33N 47°35' W 122°21'0 0.0
2016-Jul-28 00:33N 47°35' W 122°21'0 0.0
2016-Jul-27 23:33N 47°35' W 122°21'0 0.4
2016-Jul-27 22:33N 47°35' W 122°21'0 0.4
2016-Jul-27 21:33N 47°35' W 122°21'0 0.0
2016-Jul-27 20:33N 47°35' W 122°21'0 0.0
2016-Jul-27 19:34N 47°35' W 122°21'0 0.0
2016-Jul-27 18:33N 47°35' W 122°21'0 0.0
2016-Jul-27 17:33N 47°35' W 122°21'0 0.0
2016-Jul-27 16:33N 47°35' W 122°21'0 0.0
2016-Jul-27 15:33N 47°35' W 122°21'0 0.0
2016-Jul-27 14:33N 47°35' W 122°21'0 0.0
2016-Jul-27 13:33N 47°35' W 122°21'0 0.0
2016-Jul-27 12:33N 47°35' W 122°21'0 0.0
2016-Jul-27 11:33N 47°35' W 122°21'0 0.4
2016-Jul-27 10:33N 47°36' W 122°21'4 4.3
2016-Jul-27 09:33N 47°33' W 122°26'1010.5
2016-Jul-27 08:33N 47°23' W 122°21'7 7.4
2016-Jul-27 07:33N 47°16' W 122°25'1 0.9
2016-Jul-27 06:23N 47°15' W 122°26'0 0.0
2016-Jul-27 02:31N 47°15' W 122°26'0 0.0
2016-Jul-27 01:33N 47°15' W 122°26'0 0.0
2016-Jul-26 23:28N 47°15' W 122°26'1 1.0
2016-Jul-26 22:23N 47°16' W 122°25'0 0.2
2016-Jul-26 21:29N 47°16' W 122°25'1 0.6
2016-Jul-26 19:31N 47°15' W 122°26'0 0.0
2016-Jul-26 18:33N 47°15' W 122°26'2 2.3
2016-Jul-26 17:32N 47°15' W 122°22'2 2.0
2016-Jul-26 16:33N 47°17' W 122°25'1 1.2
2016-Jul-26 15:33N 47°18' W 122°26'3 2.5
2016-Jul-26 14:31N 47°16' W 122°23'2 1.7
2016-Jul-26 13:34N 47°17' W 122°25'0 0.2
2016-Jul-26 12:33N 47°17' W 122°25'2 1.6
2016-Jul-26 11:33N 47°16' W 122°23'0 0.3
2016-Jul-26 10:33N 47°16' W 122°23'2 2.2
2016-Jul-26 09:34N 47°17' W 122°26'1 0.8
2016-Jul-26 08:33N 47°17' W 122°25'2 1.6
2016-Jul-26 07:33N 47°15' W 122°26'0 0.0
2016-Jul-26 06:33N 47°15' W 122°26'0 0.0
2016-Jul-26 05:33N 47°15' W 122°26'1 1.2
2016-Jul-26 04:33N 47°16' W 122°26'2 2.3
2016-Jul-26 03:33N 47°16' W 122°23'2 0.7
2016-Jul-26 00:29N 47°15' W 122°26'0 0.0
2016-Jul-25 21:14N 47°15' W 122°26'0 0.0
2016-Jul-25 20:33N 47°15' W 122°26'0 0.0
2016-Jul-25 19:33N 47°15' W 122°26'0 0.0
2016-Jul-25 18:33N 47°15' W 122°26'0 0.0
2016-Jul-25 17:33N 47°15' W 122°26'1 0.9
2016-Jul-25 16:33N 47°16' W 122°26'1 1.0
2016-Jul-25 15:33N 47°17' W 122°25'1 0.6
2016-Jul-25 14:33N 47°17' W 122°25'1 0.7
2016-Jul-25 13:32N 47°16' W 122°24'1 0.8
2016-Jul-25 12:33N 47°17' W 122°25'1 1.5
2016-Jul-25 11:33N 47°16' W 122°23'2 2.0
2016-Jul-25 10:33N 47°15' W 122°26'0 0.0
2016-Jul-25 09:33N 47°15' W 122°26'0 0.0
2016-Jul-25 08:32N 47°15' W 122°26'0 0.0
2016-Jul-25 07:31N 47°15' W 122°26'0 0.0
2016-Jul-25 06:33N 47°15' W 122°26'0 0.0
2016-Jul-25 05:33N 47°15' W 122°26'0 0.0
2016-Jul-25 04:21N 47°15' W 122°26'0 0.0
2016-Jul-25 03:33N 47°15' W 122°26'0 0.0
2016-Jul-25 02:33N 47°15' W 122°26'0 0.0
2016-Jul-25 01:33N 47°15' W 122°26'2 1.8
2016-Jul-25 00:33N 47°17' W 122°25'1 0.7
2016-Jul-24 23:33N 47°18' W 122°26'0 0.0
2016-Jul-24 22:33N 47°18' W 122°26'1 1.3
2016-Jul-24 21:33N 47°16' W 122°25'1 0.5
2016-Jul-24 20:32N 47°17' W 122°25'2 2.1
2016-Jul-24 19:32N 47°16' W 122°23'2 2.0
2016-Jul-24 18:28N 47°15' W 122°26'0 0.0
2016-Jul-24 17:33N 47°15' W 122°26'0 0.0
2016-Jul-24 16:33N 47°15' W 122°26'0 0.0
2016-Jul-24 15:33N 47°15' W 122°26'0 0.0
2016-Jul-24 14:33N 47°15' W 122°26'0 0.0
2016-Jul-24 13:33N 47°15' W 122°26'0 0.3
2016-Jul-24 12:33N 47°16' W 122°26'2 2.2
2016-Jul-24 11:33N 47°16' W 122°23'3 2.8
2016-Jul-24 10:33N 47°17' W 122°26'0 0.2
2016-Jul-24 09:32N 47°18' W 122°26'3 3.5
2016-Jul-24 08:33N 47°21' W 122°25'7 7.5
2016-Jul-24 07:33N 47°28' W 122°24'8 7.6
2016-Jul-24 06:33N 47°36' W 122°24'2 2.1
2016-Jul-24 05:33N 47°35' W 122°21'0 0.4
2016-Jul-24 04:33N 47°35' W 122°21'0 0.0
2016-Jul-24 03:33N 47°35' W 122°21'0 0.0
2016-Jul-24 02:33N 47°35' W 122°21'0 0.0
2016-Jul-24 01:33N 47°35' W 122°21'0 0.0
2016-Jul-24 00:33N 47°35' W 122°21'0 0.0
2016-Jul-23 23:33N 47°35' W 122°21'0 0.3
2016-Jul-23 22:33N 47°36' W 122°21'2 1.9
2016-Jul-23 21:33N 47°36' W 122°23'1010.0
2016-Jul-23 20:33N 47°26' W 122°23'9 9.2
2016-Jul-23 19:33N 47°17' W 122°25'0 0.5
2016-Jul-23 18:33N 47°17' W 122°25'1 1.2
2016-Jul-23 17:33N 47°16' W 122°26'1 1.1
2016-Jul-23 16:33N 47°15' W 122°26'4 4.0
2016-Jul-23 15:33N 47°19' W 122°28'7 7.5
2016-Jul-23 14:33N 47°26' W 122°23'9 9.0
2016-Jul-23 13:33N 47°35' W 122°25'3 3.1
2016-Jul-23 12:33N 47°35' W 122°21'0 0.0
2016-Jul-23 11:33N 47°35' W 122°21'0 0.5
2016-Jul-23 10:33N 47°35' W 122°21'2 1.7
2016-Jul-23 09:33N 47°36' W 122°22'7 6.8
2016-Jul-23 08:33N 47°30' W 122°24'9 8.8
2016-Jul-23 07:33N 47°21' W 122°24'6 6.0
2016-Jul-23 06:33N 47°15' W 122°26'0 0.0
2016-Jul-23 04:33N 47°15' W 122°26'0 0.0
2016-Jul-23 03:33N 47°15' W 122°26'2 1.7
2016-Jul-23 02:33N 47°17' W 122°25'2 2.0
2016-Jul-23 01:33N 47°16' W 122°23'0 0.1
2016-Jul-23 00:33N 47°16' W 122°23'0 0.0
2016-Jul-22 23:33N 47°16' W 122°23'2 2.0
2016-Jul-22 22:33N 47°15' W 122°26'0 0.0
2016-Jul-22 21:33N 47°15' W 122°26'0 0.0
2016-Jul-22 20:32N 47°15' W 122°26'0 0.0
2016-Jul-22 19:26N 47°15' W 122°26'0 0.0
2016-Jul-22 18:28N 47°15' W 122°26'0 0.0
2016-Jul-22 17:28N 47°15' W 122°26'0 0.0
2016-Jul-22 16:33N 47°15' W 122°26'0 0.0
2016-Jul-22 15:33N 47°15' W 122°26'2 1.5
2016-Jul-22 14:32N 47°17' W 122°25'2 1.7
2016-Jul-22 13:33N 47°15' W 122°23'2 1.9
2016-Jul-22 12:16N 47°16' W 122°26'1 0.9
2016-Jul-22 11:33N 47°15' W 122°26'0 0.0
2016-Jul-22 10:33N 47°15' W 122°26'0 0.0
2016-Jul-22 09:33N 47°15' W 122°26'0 0.0
2016-Jul-22 08:33N 47°15' W 122°26'0 0.0
2016-Jul-22 07:32N 47°15' W 122°26'0 0.0
2016-Jul-22 05:33N 47°15' W 122°26'0 0.0
2016-Jul-22 04:33N 47°15' W 122°26'2 1.6
2016-Jul-22 03:33N 47°17' W 122°25'0 0.1
2016-Jul-22 01:33N 47°17' W 122°25'1 1.4
2016-Jul-22 00:32N 47°16' W 122°24'1 0.6
2016-Jul-21 22:33N 47°16' W 122°25'1 1.2
2016-Jul-21 21:28N 47°16' W 122°23'2 2.1
2016-Jul-21 20:33N 47°16' W 122°26'0 0.3
2016-Jul-21 19:33N 47°15' W 122°26'0 0.0
2016-Jul-21 18:33N 47°15' W 122°26'0 0.0
2016-Jul-21 17:32N 47°15' W 122°26'0 0.0
2016-Jul-21 16:33N 47°15' W 122°26'0 0.0
2016-Jul-21 15:33N 47°15' W 122°26'2 1.8
2016-Jul-21 14:33N 47°16' W 122°24'3 2.7
2016-Jul-21 13:33N 47°18' W 122°26'1 0.8
2016-Jul-21 12:33N 47°17' W 122°26'2 2.1
2016-Jul-21 11:33N 47°16' W 122°23'1 1.4
2016-Jul-21 10:33N 47°17' W 122°25'1 1.0
2016-Jul-21 09:33N 47°18' W 122°26'0 0.0
2016-Jul-21 08:33N 47°18' W 122°26'  

Dump ship's entire track history